Time;durP1;ratioP1;P1;durP2;ratioP2;P2;SDS_P1;SDS_P2;PMS_P1;PMS_P2;Temp;Humidity;BMP_temperature;BMP_pressure;BME280_temperature;BME280_humidity;BME280_pressure;Samples;Min_cycle;Max_cycle;Signal;HPM_P1;HPM_P2
2022/01/31 00:01:11;;;;;;;65.37;37.83;;;2.60;91.20;;;;;;5040351;28;20214;-67
2022/01/31 00:03:38;;;;;;;59.97;35.57;;;2.50;91.10;;;;;;5044640;28;20210;-67
2022/01/31 00:06:05;;;;;;;63.63;36.93;;;2.60;91.00;;;;;;5043636;28;20222;-67
2022/01/31 00:08:32;;;;;;;62.17;35.67;;;2.50;90.80;;;;;;5039968;28;20290;-67
2022/01/31 00:10:59;;;;;;;65.53;40.03;;;2.50;90.70;;;;;;5041887;28;20218;-67
2022/01/31 00:13:34;;;;;;;68.47;40.57;;;2.50;90.50;;;;;;5041718;28;20549;-67
2022/01/31 00:16:02;;;;;;;63.80;37.37;;;2.40;90.60;;;;;;5044314;28;20229;-67
2022/01/31 00:18:30;;;;;;;66.50;39.17;;;2.40;90.80;;;;;;5052203;28;20201;-67
2022/01/31 00:20:57;;;;;;;63.40;37.40;;;2.30;90.90;;;;;;5050911;28;20671;-68
2022/01/31 00:23:24;;;;;;;60.53;35.60;;;2.30;91.00;;;;;;5038733;28;20202;-67
2022/01/31 00:25:51;;;;;;;58.80;34.90;;;2.30;90.90;;;;;;5041938;28;20202;-67
2022/01/31 00:28:18;;;;;;;63.13;37.60;;;2.30;90.70;;;;;;5047244;28;20288;-67
2022/01/31 00:30:46;;;;;;;62.00;37.30;;;2.30;90.60;;;;;;5054765;28;20642;-67
2022/01/31 00:33:13;;;;;;;63.03;38.47;;;2.20;90.70;;;;;;5054912;28;20222;-67
2022/01/31 00:35:41;;;;;;;69.57;37.07;;;2.20;90.70;;;;;;5048606;28;20236;-68
2022/01/31 00:38:08;;;;;;;57.73;34.07;;;2.20;90.50;;;;;;5046386;28;20219;-67
2022/01/31 00:40:41;;;;;;;58.43;36.57;;;2.10;90.30;;;;;;5052360;28;20208;-67
2022/01/31 00:43:13;;;;;;;60.93;36.27;;;2.10;90.10;;;;;;5050889;28;20206;-67
2022/01/31 00:46:02;;;;;;;66.13;38.57;;;2.00;90.10;;;;;;5034738;28;20235;-67
2022/01/31 00:48:34;;;;;;;63.57;35.00;;;2.00;90.00;;;;;;5047309;28;20204;-67
2022/01/31 00:51:01;;;;;;;166.73;41.73;;;1.90;89.20;;;;;;5042947;28;20199;-68
2022/01/31 00:53:28;;;;;;;79.30;41.67;;;1.80;88.50;;;;;;5049100;28;20659;-68
2022/01/31 00:55:55;;;;;;;71.00;37.40;;;1.80;88.60;;;;;;5054064;28;20305;-67
2022/01/31 00:58:22;;;;;;;61.97;36.20;;;1.70;89.10;;;;;;5053687;28;20235;-67
2022/01/31 01:00:49;;;;;;;55.80;32.53;;;1.70;89.80;;;;;;5042252;28;20601;-68
2022/01/31 01:03:17;;;;;;;54.70;34.17;;;1.60;90.10;;;;;;5046596;28;20226;-67
2022/01/31 01:05:44;;;;;;;57.13;35.90;;;1.60;90.30;;;;;;5048906;28;20222;-67
2022/01/31 01:08:11;;;;;;;54.00;33.37;;;1.60;90.30;;;;;;5038405;28;20329;-68
2022/01/31 01:10:39;;;;;;;176.20;29.67;;;1.60;90.20;;;;;;5051808;28;20207;-67
2022/01/31 01:13:07;;;;;;;46.23;30.50;;;1.60;90.40;;;;;;5047938;28;20202;-68
2022/01/31 01:15:34;;;;;;;59.27;36.47;;;1.50;90.60;;;;;;5051277;28;20675;-67
2022/01/31 01:18:01;;;;;;;60.37;36.77;;;1.50;90.80;;;;;;5038966;28;20207;-67
2022/01/31 01:20:29;;;;;;;54.77;35.13;;;1.50;91.10;;;;;;5029886;28;20249;-67
2022/01/31 01:22:57;;;;;;;50.13;34.27;;;1.50;91.50;;;;;;5050379;28;20228;-67
2022/01/31 01:25:25;;;;;;;65.00;38.53;;;1.50;91.50;;;;;;5051534;28;20229;-67
2022/01/31 01:27:53;;;;;;;63.00;38.47;;;1.50;91.50;;;;;;5047388;28;20194;-68
2022/01/31 01:30:21;;;;;;;62.00;36.77;;;1.50;91.50;;;;;;5031860;28;20215;-67
2022/01/31 01:35:31;;;;;;;56.93;35.30;;;1.50;91.50;;;;;;5050149;28;20228;-68
2022/01/31 01:38:06;;;;;;;62.13;37.90;;;1.50;91.40;;;;;;5051503;28;20218;-68
2022/01/31 01:40:39;;;;;;;67.50;41.57;;;1.50;91.30;;;;;;5046648;28;20215;-68
2022/01/31 01:43:09;;;;;;;170.17;40.93;;;1.50;90.90;;;;;;5033951;28;20309;-68
2022/01/31 01:45:37;;;;;;;160.60;43.00;;;1.40;90.40;;;;;;5033876;28;20254;-67
2022/01/31 01:48:06;;;;;;;96.17;49.20;;;1.30;90.20;;;;;;5041515;28;20302;-68
2022/01/31 01:50:35;;;;;;;226.07;63.03;;;1.20;90.60;;;;;;5041797;28;20211;-67
2022/01/31 01:53:04;;;;;;;109.00;59.87;;;1.10;90.60;;;;;;5049037;28;20207;-67
2022/01/31 01:55:31;;;;;;;120.47;62.67;;;1.00;90.30;;;;;;5045593;28;20215;-67
2022/01/31 01:57:59;;;;;;;120.13;62.87;;;0.90;90.30;;;;;;5050015;28;20212;-67
2022/01/31 02:00:43;;;;;;;119.23;64.07;;;0.90;90.50;;;;;;5042148;28;20210;-67
2022/01/31 02:03:10;;;;;;;116.40;55.17;;;0.90;90.60;;;;;;5050722;28;20310;-67
2022/01/31 02:05:37;;;;;;;113.37;56.70;;;0.80;90.50;;;;;;5036669;28;20651;-67
2022/01/31 02:08:05;;;;;;;121.60;53.17;;;0.80;90.70;;;;;;5018675;28;20207;-67
2022/01/31 02:10:32;;;;;;;85.73;48.87;;;0.80;90.80;;;;;;5039959;28;20217;-67
2022/01/31 02:13:25;;;;;;;102.07;45.73;;;0.80;90.80;;;;;;5044921;28;20681;-67
2022/01/31 02:16:08;;;;;;;87.33;44.17;;;0.80;90.80;;;;;;5044875;28;20313;-67
2022/01/31 02:18:56;;;;;;;78.47;44.37;;;0.70;90.90;;;;;;5052883;28;20301;-68
2022/01/31 02:21:42;;;;;;;66.43;40.60;;;0.70;91.00;;;;;;5051131;28;20337;-68
2022/01/31 02:24:30;;;;;;;68.80;42.27;;;0.60;91.00;;;;;;5042396;28;20215;-67
2022/01/31 02:27:23;;;;;;;56.53;37.70;;;0.60;91.00;;;;;;5039662;28;20226;-68
2022/01/31 02:29:51;;;;;;;71.63;41.47;;;0.60;91.10;;;;;;5051620;28;20605;-67
2022/01/31 02:32:20;;;;;;;58.70;36.87;;;0.60;91.10;;;;;;5041398;28;20206;-67
2022/01/31 02:34:51;;;;;;;68.73;43.67;;;0.60;91.00;;;;;;5061213;28;20210;-68
2022/01/31 02:37:20;;;;;;;68.57;41.20;;;0.60;90.90;;;;;;5049505;28;20325;-67
2022/01/31 02:39:50;;;;;;;67.40;40.00;;;0.60;91.10;;;;;;5041524;28;20207;-67
2022/01/31 02:42:18;;;;;;;61.63;39.40;;;0.60;91.30;;;;;;5039557;28;20287;-67
2022/01/31 02:44:46;;;;;;;61.33;38.47;;;0.50;91.50;;;;;;5052065;28;20241;-67
2022/01/31 02:47:25;;;;;;;66.17;40.53;;;0.60;91.60;;;;;;5046909;28;20217;-67
2022/01/31 02:50:02;;;;;;;62.70;38.80;;;0.50;91.70;;;;;;5054603;28;20745;-67
2022/01/31 02:52:33;;;;;;;59.67;37.77;;;0.50;91.70;;;;;;5054506;28;20254;-67
2022/01/31 02:55:04;;;;;;;58.13;36.67;;;0.60;91.70;;;;;;5046339;28;20547;-67
2022/01/31 02:57:32;;;;;;;57.27;36.87;;;0.60;91.70;;;;;;5053119;28;20230;-67
2022/01/31 02:59:59;;;;;;;57.97;36.50;;;0.60;91.60;;;;;;5055190;28;20207;-68
2022/01/31 03:02:36;;;;;;;52.10;33.93;;;0.70;91.50;;;;;;5050078;28;20214;-67
2022/01/31 03:05:04;;;;;;;53.50;35.33;;;0.70;91.50;;;;;;5050925;28;20277;-67
2022/01/31 03:07:31;;;;;;;55.47;36.43;;;0.70;91.40;;;;;;5039744;28;20221;-67
2022/01/31 03:09:58;;;;;;;55.93;37.83;;;0.70;91.30;;;;;;5032296;28;20218;-67
2022/01/31 03:12:29;;;;;;;56.80;36.33;;;0.80;91.40;;;;;;5045965;28;20222;-67
2022/01/31 03:15:01;;;;;;;49.87;33.50;;;0.80;91.50;;;;;;5056085;28;20211;-68
2022/01/31 03:18:07;;;;;;;55.17;33.93;;;0.80;91.50;;;;;;5074028;28;20228;-67
2022/01/31 03:20:34;;;;;;;52.77;34.77;;;0.80;91.40;;;;;;5056672;28;20342;-67
2022/01/31 03:23:02;;;;;;;53.67;33.90;;;0.80;91.20;;;;;;5049241;28;20290;-67
2022/01/31 03:25:30;;;;;;;45.87;32.13;;;0.80;91.00;;;;;;5049441;28;20199;-67
2022/01/31 03:27:57;;;;;;;43.60;31.20;;;0.80;90.90;;;;;;5055350;28;20203;-67
2022/01/31 03:30:24;;;;;;;42.90;31.13;;;0.80;90.90;;;;;;5053257;28;20221;-67
2022/01/31 03:32:56;;;;;;;45.67;33.33;;;0.80;91.00;;;;;;5045886;28;20199;-67
2022/01/31 03:35:23;;;;;;;39.00;29.87;;;0.90;91.30;;;;;;5037935;28;20239;-67
2022/01/31 03:37:52;;;;;;;40.43;30.97;;;0.90;91.40;;;;;;5053321;28;20225;-67
2022/01/31 03:40:23;;;;;;;38.50;29.30;;;0.90;91.50;;;;;;5038442;28;20499;-67
2022/01/31 03:42:51;;;;;;;42.50;30.80;;;0.90;91.60;;;;;;5055328;28;20207;-68
2022/01/31 03:45:19;;;;;;;41.77;30.23;;;0.90;91.40;;;;;;5044139;28;20215;-67
2022/01/31 03:47:52;;;;;;;41.03;30.63;;;0.90;91.40;;;;;;5053679;28;20214;-67
2022/01/31 03:50:19;;;;;;;45.90;32.57;;;0.90;91.50;;;;;;5038790;28;20638;-67
2022/01/31 03:52:52;;;;;;;43.90;31.67;;;0.90;91.60;;;;;;5021037;28;20439;-67
2022/01/31 03:55:20;;;;;;;45.10;32.60;;;0.90;91.70;;;;;;5037252;28;20226;-67
2022/01/31 03:57:49;;;;;;;46.57;33.20;;;0.90;91.60;;;;;;5044661;28;20226;-67
2022/01/31 04:00:28;;;;;;;49.27;34.47;;;0.90;91.50;;;;;;5052231;28;20230;-67
2022/01/31 04:02:55;;;;;;;48.23;34.47;;;0.90;91.50;;;;;;5058174;28;20230;-67
2022/01/31 04:05:23;;;;;;;54.37;35.50;;;0.90;91.50;;;;;;5058984;28;20238;-67
2022/01/31 04:07:50;;;;;;;53.20;37.13;;;0.90;91.50;;;;;;5050693;28;20268;-67
2022/01/31 04:10:17;;;;;;;51.70;35.53;;;0.90;91.50;;;;;;5050397;28;20313;-67
2022/01/31 04:12:44;;;;;;;51.53;35.03;;;0.90;91.40;;;;;;5046848;28;20221;-67
2022/01/31 04:15:11;;;;;;;49.23;34.67;;;0.90;91.30;;;;;;5042584;28;20228;-67
2022/01/31 04:17:39;;;;;;;50.53;35.70;;;0.90;91.30;;;;;;5044467;28;20741;-67
2022/01/31 04:20:08;;;;;;;49.47;35.17;;;0.80;91.00;;;;;;5054163;28;20293;-67
2022/01/31 04:22:42;;;;;;;41.47;30.77;;;0.80;91.20;;;;;;5049930;28;20206;-67
2022/01/31 04:25:27;;;;;;;49.30;34.03;;;0.80;91.30;;;;;;5044656;28;20210;-67
2022/01/31 04:28:02;;;;;;;48.93;33.73;;;0.70;91.10;;;;;;5056465;28;20214;-67
2022/01/31 04:30:31;;;;;;;47.83;32.83;;;0.70;91.10;;;;;;5048943;28;20264;-67
2022/01/31 04:32:58;;;;;;;51.23;35.93;;;0.70;91.10;;;;;;5048762;28;20238;-67
2022/01/31 04:35:25;;;;;;;45.83;34.00;;;0.70;90.90;;;;;;5051207;28;20240;-67
2022/01/31 04:37:53;;;;;;;55.30;35.40;;;0.70;90.90;;;;;;5057542;28;20245;-67
2022/01/31 04:40:20;;;;;;;53.57;36.07;;;0.70;90.80;;;;;;5056108;28;20218;-67
2022/01/31 04:42:47;;;;;;;56.53;35.77;;;0.60;90.70;;;;;;5043553;28;20208;-67
2022/01/31 04:45:14;;;;;;;59.97;37.03;;;0.50;90.70;;;;;;5045784;28;20206;-67
2022/01/31 04:47:41;;;;;;;61.70;37.87;;;0.50;90.70;;;;;;5042926;28;20293;-67
2022/01/31 04:50:08;;;;;;;63.80;35.73;;;0.50;90.90;;;;;;5039250;28;20647;-67
2022/01/31 04:52:38;;;;;;;56.57;35.73;;;0.50;90.90;;;;;;5051054;28;20206;-67
2022/01/31 04:55:06;;;;;;;60.90;36.73;;;0.50;91.00;;;;;;5052012;28;20639;-67
2022/01/31 04:57:33;;;;;;;59.77;38.23;;;0.50;90.80;;;;;;5047250;28;20305;-67
2022/01/31 05:00:01;;;;;;;59.97;36.30;;;0.50;90.80;;;;;;5054896;28;20215;-67
2022/01/31 05:02:28;;;;;;;64.23;37.90;;;0.50;90.90;;;;;;5055103;28;20598;-67
2022/01/31 05:04:56;;;;;;;76.43;42.70;;;0.50;90.70;;;;;;5048619;28;20207;-67
2022/01/31 05:07:23;;;;;;;72.73;40.93;;;0.50;90.60;;;;;;5044977;28;20526;-67
2022/01/31 05:09:50;;;;;;;79.03;43.70;;;0.50;90.80;;;;;;5048862;28;20206;-67
2022/01/31 05:12:17;;;;;;;78.73;43.37;;;0.50;91.00;;;;;;5038425;28;20215;-67
2022/01/31 05:14:44;;;;;;;90.00;45.07;;;0.50;91.00;;;;;;5050532;28;20207;-67
2022/01/31 05:17:11;;;;;;;85.27;46.50;;;0.60;91.10;;;;;;5041260;28;20637;-67
2022/01/31 05:19:38;;;;;;;212.53;51.53;;;0.60;91.10;;;;;;5046252;28;20631;-67
2022/01/31 05:22:05;;;;;;;206.97;59.00;;;0.60;91.20;;;;;;5049314;28;20231;-67
2022/01/31 05:24:32;;;;;;;205.43;57.53;;;0.60;91.40;;;;;;5054848;28;20249;-67
2022/01/31 05:26:59;;;;;;;209.17;55.67;;;0.60;91.70;;;;;;5053569;28;20238;-67
2022/01/31 05:29:26;;;;;;;171.43;56.27;;;0.60;91.80;;;;;;5049275;28;20218;-67
2022/01/31 05:31:53;;;;;;;208.90;54.80;;;0.60;92.00;;;;;;5043913;28;20218;-67
2022/01/31 05:34:22;;;;;;;569.77;64.77;;;0.60;92.20;;;;;;5046791;28;20210;-67
2022/01/31 05:36:51;;;;;;;289.70;56.70;;;0.60;92.40;;;;;;5041405;28;20605;-67
2022/01/31 05:39:18;;;;;;;231.40;56.03;;;0.60;92.50;;;;;;5051569;28;20235;-67
2022/01/31 05:41:45;;;;;;;260.43;57.80;;;0.60;92.50;;;;;;5042805;28;20215;-68
2022/01/31 05:44:12;;;;;;;223.90;50.83;;;0.60;92.80;;;;;;5043827;28;20581;-67
2022/01/31 05:46:39;;;;;;;358.90;47.97;;;0.70;93.00;;;;;;5040271;28;20647;-67
2022/01/31 05:49:06;;;;;;;426.47;44.70;;;0.70;93.10;;;;;;5036570;28;20698;-67
2022/01/31 05:51:39;;;;;;;105.70;41.37;;;0.70;93.10;;;;;;5039796;28;20203;-67
2022/01/31 05:54:06;;;;;;;187.40;43.77;;;0.70;93.10;;;;;;5044633;28;20263;-67
2022/01/31 05:56:33;;;;;;;295.13;49.03;;;0.70;93.20;;;;;;5042432;28;20261;-67
2022/01/31 05:59:01;;;;;;;156.13;44.97;;;0.60;93.10;;;;;;5042831;28;20207;-67
2022/01/31 06:01:27;;;;;;;290.70;51.00;;;0.60;93.20;;;;;;5040705;28;20619;-67
2022/01/31 06:03:55;;;;;;;179.20;44.17;;;0.60;93.40;;;;;;5048130;28;20211;-67
2022/01/31 06:06:22;;;;;;;214.13;46.50;;;0.60;93.50;;;;;;5042742;28;20203;-67
2022/01/31 06:08:49;;;;;;;200.03;45.67;;;0.60;94.00;;;;;;5052282;28;20649;-67
2022/01/31 06:11:16;;;;;;;252.00;45.70;;;0.50;93.80;;;;;;5044392;28;20269;-67
2022/01/31 06:13:45;;;;;;;348.03;42.00;;;0.50;93.90;;;;;;5052435;28;20908;-67
2022/01/31 06:16:12;;;;;;;154.03;41.10;;;0.60;94.00;;;;;;5047450;28;20593;-67
2022/01/31 06:18:40;;;;;;;165.27;43.70;;;0.60;94.10;;;;;;5029407;28;20222;-67
2022/01/31 06:21:07;;;;;;;164.87;47.83;;;0.60;94.20;;;;;;5041664;28;20670;-67
2022/01/31 06:23:34;;;;;;;146.73;48.63;;;0.60;94.30;;;;;;5044725;28;20216;-67
2022/01/31 06:26:01;;;;;;;314.93;54.03;;;0.70;94.40;;;;;;5037594;28;20216;-67
2022/01/31 06:28:28;;;;;;;166.67;49.03;;;0.70;94.30;;;;;;5041482;28;20265;-67
2022/01/31 06:30:59;;;;;;;255.93;52.83;;;0.80;94.30;;;;;;5042700;28;20268;-67
2022/01/31 06:33:27;;;;;;;238.23;51.17;;;0.80;94.30;;;;;;5048651;28;20578;-67
2022/01/31 06:35:54;;;;;;;578.73;56.90;;;0.80;94.30;;;;;;5053179;28;20210;-67
2022/01/31 06:38:22;;;;;;;405.33;48.37;;;0.80;94.30;;;;;;5047715;28;20238;-67
2022/01/31 06:40:50;;;;;;;344.70;51.70;;;0.80;94.20;;;;;;5042455;28;20286;-67
2022/01/31 06:43:17;;;;;;;229.07;43.20;;;0.80;94.20;;;;;;5047236;28;20285;-67
2022/01/31 06:45:44;;;;;;;199.33;47.30;;;0.80;94.30;;;;;;5032973;28;20550;-67
2022/01/31 06:48:11;;;;;;;276.80;44.33;;;0.80;94.30;;;;;;5039007;28;20222;-67
2022/01/31 06:50:38;;;;;;;192.67;44.17;;;0.90;94.40;;;;;;5047954;28;20210;-67
2022/01/31 06:53:06;;;;;;;202.50;40.77;;;0.90;94.40;;;;;;5044578;28;20642;-67
2022/01/31 06:55:34;;;;;;;407.67;45.50;;;0.90;94.50;;;;;;5038373;28;20230;-67
2022/01/31 06:58:02;;;;;;;241.97;42.47;;;0.90;94.50;;;;;;5035716;28;20223;-67
2022/01/31 07:00:30;;;;;;;188.30;42.00;;;0.90;94.40;;;;;;5039547;28;20499;-67
2022/01/31 07:03:00;;;;;;;196.50;40.17;;;1.00;94.60;;;;;;5048698;28;20245;-67
2022/01/31 07:05:27;;;;;;;121.20;40.10;;;1.00;94.60;;;;;;5044820;28;20659;-67
2022/01/31 07:07:54;;;;;;;111.17;39.83;;;1.00;94.60;;;;;;5049321;28;20203;-67
2022/01/31 07:10:21;;;;;;;118.67;38.63;;;1.00;94.60;;;;;;5045183;28;20211;-67
2022/01/31 07:12:52;;;;;;;102.93;38.57;;;1.10;94.60;;;;;;5037689;28;20195;-67
2022/01/31 07:15:20;;;;;;;284.00;51.10;;;1.10;94.60;;;;;;5049812;28;20212;-67
2022/01/31 07:17:47;;;;;;;114.40;42.80;;;1.10;94.50;;;;;;5041172;28;20226;-67
2022/01/31 07:20:22;;;;;;;222.37;41.30;;;1.20;94.50;;;;;;5051451;28;20281;-67
2022/01/31 07:22:57;;;;;;;278.43;41.73;;;1.20;94.50;;;;;;5039908;28;20213;-67
2022/01/31 07:25:34;;;;;;;121.00;36.43;;;1.20;94.30;;;;;;5041039;28;20202;-68
2022/01/31 07:28:04;;;;;;;119.80;35.57;;;1.20;94.30;;;;;;5046658;28;20202;-68
2022/01/31 07:30:31;;;;;;;157.73;36.63;;;1.20;94.30;;;;;;5047164;28;20310;-68
2022/01/31 07:32:59;;;;;;;91.87;34.00;;;1.30;94.50;;;;;;5041055;28;20203;-68
2022/01/31 07:35:26;;;;;;;216.43;39.50;;;1.30;94.50;;;;;;5041801;28;20220;-68
2022/01/31 07:37:53;;;;;;;117.30;35.63;;;1.40;94.50;;;;;;5050661;28;20223;-68
2022/01/31 07:40:21;;;;;;;131.77;35.10;;;1.40;94.40;;;;;;5045024;28;20199;-68
2022/01/31 07:42:48;;;;;;;102.80;36.27;;;1.50;94.40;;;;;;5041904;28;20195;-68
2022/01/31 07:45:15;;;;;;;110.03;35.67;;;1.60;94.50;;;;;;5038320;28;20217;-68
2022/01/31 07:47:42;;;;;;;117.27;37.63;;;1.70;94.50;;;;;;5051320;28;20219;-68
2022/01/31 07:50:11;;;;;;;117.50;34.87;;;1.70;94.50;;;;;;5043979;28;20203;-68
2022/01/31 07:52:38;;;;;;;130.03;34.17;;;1.80;94.50;;;;;;5043181;28;20218;-68
2022/01/31 07:55:06;;;;;;;99.13;36.27;;;1.90;94.50;;;;;;5047341;28;20264;-68
2022/01/31 07:57:34;;;;;;;90.33;32.40;;;1.90;94.40;;;;;;5050832;28;20233;-68
2022/01/31 08:00:07;;;;;;;78.00;32.73;;;2.00;94.50;;;;;;5040725;28;20210;-69
2022/01/31 08:02:41;;;;;;;77.00;30.47;;;2.10;94.40;;;;;;5052206;28;20707;-69
2022/01/31 08:05:09;;;;;;;122.87;33.10;;;2.20;94.40;;;;;;5046354;28;20761;-68
2022/01/31 08:07:37;;;;;;;117.50;34.60;;;2.20;94.30;;;;;;5050227;28;20202;-68
2022/01/31 08:10:06;;;;;;;105.97;35.00;;;2.20;94.20;;;;;;5051856;28;20573;-68
2022/01/31 08:12:36;;;;;;;94.73;34.20;;;2.20;94.20;;;;;;5047734;28;20208;-68
2022/01/31 08:15:07;;;;;;;105.63;35.57;;;2.30;94.50;;;;;;5050610;28;20548;-68
2022/01/31 08:17:34;;;;;;;78.67;32.53;;;2.30;94.20;;;;;;5050005;28;20238;-68
2022/01/31 08:20:02;;;;;;;80.30;29.57;;;2.40;94.20;;;;;;5046650;28;20533;-68
2022/01/31 08:22:29;;;;;;;95.23;30.67;;;2.40;94.20;;;;;;5037805;28;20216;-68
2022/01/31 08:24:56;;;;;;;95.93;32.20;;;2.40;94.00;;;;;;5046185;28;20211;-68
2022/01/31 08:27:23;;;;;;;130.57;33.33;;;2.40;93.90;;;;;;5042984;28;20604;-68
2022/01/31 08:29:55;;;;;;;67.53;28.47;;;2.40;94.10;;;;;;5044695;28;20227;-69
2022/01/31 08:32:34;;;;;;;54.50;28.87;;;2.40;94.30;;;;;;5044946;28;20254;-69
2022/01/31 08:37:46;;;;;;;75.57;32.67;;;2.40;94.30;;;;;;5043561;28;20222;-69
2022/01/31 08:40:14;;;;;;;65.13;32.07;;;2.40;94.40;;;;;;5045573;28;20207;-69
2022/01/31 08:42:45;;;;;;;62.87;32.03;;;2.50;94.60;;;;;;5049953;28;20272;-69
2022/01/31 08:45:12;;;;;;;78.63;34.43;;;2.60;94.70;;;;;;5045924;28;20203;-69
2022/01/31 08:47:41;;;;;;;72.53;35.77;;;2.60;94.70;;;;;;5038690;28;20202;-69
2022/01/31 08:50:09;;;;;;;76.77;38.93;;;2.80;94.80;;;;;;5044435;28;20297;-69
2022/01/31 08:52:37;;;;;;;85.37;38.73;;;2.80;94.80;;;;;;5045896;28;20298;-69
2022/01/31 08:55:07;;;;;;;121.73;40.97;;;2.90;94.80;;;;;;5049206;28;20203;-69
2022/01/31 08:57:35;;;;;;;92.53;42.80;;;3.10;94.70;;;;;;5036343;28;20268;-69
2022/01/31 09:00:02;;;;;;;126.73;45.97;;;3.20;94.80;;;;;;5045593;28;20199;-69
2022/01/31 09:02:39;;;;;;;127.87;47.63;;;3.40;94.90;;;;;;5049235;28;20551;-69
2022/01/31 09:05:08;;;;;;;86.97;45.63;;;3.50;94.80;;;;;;5049588;28;20643;-69
2022/01/31 09:07:35;;;;;;;140.13;47.70;;;3.60;94.70;;;;;;5032902;28;20220;-69
2022/01/31 09:10:03;;;;;;;82.57;40.83;;;3.70;94.60;;;;;;5049933;28;20226;-69
2022/01/31 09:12:33;;;;;;;74.73;39.27;;;3.80;94.60;;;;;;5041867;28;20511;-69
2022/01/31 09:15:00;;;;;;;85.57;41.07;;;3.90;94.50;;;;;;5048803;28;20222;-69
2022/01/31 09:17:28;;;;;;;74.70;39.13;;;4.00;94.40;;;;;;5034905;28;20560;-69
2022/01/31 09:19:55;;;;;;;85.97;41.97;;;4.00;94.40;;;;;;5051159;28;20199;-69
2022/01/31 09:22:22;;;;;;;84.90;39.87;;;4.10;94.30;;;;;;5050123;28;20214;-70
2022/01/31 09:24:50;;;;;;;80.07;43.93;;;4.10;94.30;;;;;;5049282;28;20260;-70
2022/01/31 09:27:18;;;;;;;98.63;44.57;;;4.20;94.30;;;;;;5038520;28;20522;-70
2022/01/31 09:29:46;;;;;;;92.23;44.60;;;4.20;94.20;;;;;;5036623;28;20219;-70
2022/01/31 09:32:15;;;;;;;86.53;45.17;;;4.30;94.10;;;;;;5037690;28;20222;-70
2022/01/31 09:34:42;;;;;;;92.23;45.43;;;4.30;94.10;;;;;;5048243;28;20211;-70
2022/01/31 09:37:09;;;;;;;80.40;44.30;;;4.30;94.00;;;;;;5033217;28;20224;-70
2022/01/31 09:39:36;;;;;;;86.87;43.60;;;4.30;94.00;;;;;;5047520;28;20216;-70
2022/01/31 09:42:07;;;;;;;84.80;42.07;;;4.30;94.00;;;;;;5040536;28;20285;-70
2022/01/31 09:44:51;;;;;;;121.37;44.23;;;4.30;93.90;;;;;;5060286;28;20740;-70
2022/01/31 09:49:48;;;;;;;115.40;43.50;;;4.30;93.60;;;;;;5044965;28;20223;-70
2022/01/31 09:52:16;;;;;;;224.70;48.63;;;4.20;93.40;;;;;;5049443;28;20644;-70
2022/01/31 09:54:47;;;;;;;132.33;45.10;;;4.10;93.50;;;;;;5035450;28;20208;-70
2022/01/31 09:57:16;;;;;;;130.10;45.43;;;4.10;93.70;;;;;;5046681;28;20287;-70
2022/01/31 09:59:43;;;;;;;87.27;44.77;;;4.10;93.90;;;;;;5044458;28;20596;-70
2022/01/31 10:02:12;;;;;;;96.90;45.47;;;4.10;94.00;;;;;;5037512;28;20200;-71
2022/01/31 10:04:44;;;;;;;86.37;43.63;;;4.00;94.10;;;;;;5041168;28;20258;-70
2022/01/31 10:07:15;;;;;;;95.00;45.57;;;4.10;94.20;;;;;;5029051;28;20210;-70
2022/01/31 10:09:45;;;;;;;86.33;45.43;;;4.10;94.30;;;;;;5046436;28;20196;-70
2022/01/31 10:16:25;;;;;;;78.93;44.27;;;4.20;94.30;;;;;;5041117;28;20207;-70
2022/01/31 10:18:03;;;;;;;82.97;48.00;;;4.30;94.20;;;;;;5040196;28;20220;-70
2022/01/31 10:20:33;;;;;;;107.33;48.43;;;4.30;94.20;;;;;;5041813;28;20256;-70
2022/01/31 10:23:11;;;;;;;103.03;49.83;;;4.40;94.20;;;;;;5042272;28;20563;-70
2022/01/31 10:25:39;;;;;;;103.90;49.60;;;4.40;94.10;;;;;;5046724;28;20201;-70
2022/01/31 10:28:18;;;;;;;107.07;52.23;;;4.40;94.10;;;;;;5035630;28;20283;-70
2022/01/31 10:30:47;;;;;;;103.30;49.90;;;4.50;94.10;;;;;;5040277;28;20202;-70
2022/01/31 10:33:17;;;;;;;100.17;47.03;;;4.50;94.10;;;;;;5038929;28;20201;-70
2022/01/31 10:35:44;;;;;;;93.17;47.27;;;4.50;94.10;;;;;;5041209;28;20208;-70
2022/01/31 10:38:16;;;;;;;98.20;46.53;;;4.50;94.00;;;;;;5036257;28;20219;-70
2022/01/31 10:57:07;;;;;;;89.30;46.83;;;4.60;94.20;;;;;;5045784;28;20214;-71
2022/01/31 10:59:40;;;;;;;103.03;47.87;;;4.50;94.20;;;;;;5055224;28;20230;-71
2022/01/31 11:02:15;;;;;;;104.10;50.27;;;4.60;94.40;;;;;;5052218;28;20226;-71
2022/01/31 11:04:44;;;;;;;92.33;45.83;;;4.50;94.50;;;;;;5034804;28;20298;-70
2022/01/31 11:07:29;;;;;;;92.67;47.43;;;4.60;94.80;;;;;;5049875;28;20201;-72
2022/01/31 11:09:56;;;;;;;105.33;49.27;;;4.60;94.90;;;;;;5037035;28;20208;-70
2022/01/31 11:12:24;;;;;;;93.57;47.43;;;4.70;94.90;;;;;;5051402;28;20235;-71
2022/01/31 11:14:56;;;;;;;90.40;46.10;;;4.80;95.00;;;;;;5053056;28;20247;-71
2022/01/31 11:17:24;;;;;;;88.03;45.97;;;4.80;94.90;;;;;;5035319;28;20240;-70
2022/01/31 11:19:57;;;;;;;81.63;44.43;;;4.90;94.80;;;;;;5042252;28;20210;-70
2022/01/31 11:22:31;;;;;;;74.50;38.80;;;4.90;94.80;;;;;;5027361;28;20546;-71
2022/01/31 11:25:16;;;;;;;73.03;39.97;;;5.00;94.70;;;;;;5052814;28;20304;-71
2022/01/31 11:28:02;;;;;;;79.07;40.00;;;5.00;94.60;;;;;;5050822;28;20227;-70
2022/01/31 11:30:30;;;;;;;82.97;42.80;;;5.10;94.50;;;;;;5041840;28;20214;-70
2022/01/31 11:32:58;;;;;;;81.00;39.40;;;5.10;94.40;;;;;;5043641;28;20213;-71
2022/01/31 11:35:25;;;;;;;70.30;39.63;;;5.20;94.40;;;;;;5048744;28;20214;-70
2022/01/31 11:37:52;;;;;;;72.63;42.10;;;5.20;94.30;;;;;;5053102;28;20260;-70
2022/01/31 11:40:21;;;;;;;73.77;39.40;;;5.30;94.20;;;;;;5040637;28;20630;-70
2022/01/31 11:42:49;;;;;;;62.00;35.23;;;5.40;94.30;;;;;;5041513;28;20205;-70
2022/01/31 11:45:25;;;;;;;64.03;38.03;;;5.40;94.10;;;;;;5051479;28;20226;-70
2022/01/31 11:47:55;;;;;;;61.37;33.97;;;5.50;94.40;;;;;;5042180;28;20645;-71
2022/01/31 11:50:24;;;;;;;59.17;36.07;;;5.70;94.10;;;;;;5033986;28;20210;-71
2022/01/31 11:52:56;;;;;;;56.03;32.07;;;5.80;93.90;;;;;;5050897;28;20278;-70
2022/01/31 11:55:38;;;;;;;54.17;30.80;;;5.90;93.80;;;;;;5045876;28;20744;-70
2022/01/31 11:58:07;;;;;;;55.20;32.23;;;6.00;93.40;;;;;;5043169;28;20265;-70
2022/01/31 12:00:39;;;;;;;48.77;29.73;;;6.10;93.10;;;;;;5052005;28;20295;-70
2022/01/31 12:03:09;;;;;;;38.33;26.47;;;6.20;93.00;;;;;;5045679;28;20545;-71
2022/01/31 12:05:37;;;;;;;53.13;29.70;;;6.30;92.40;;;;;;5051934;28;20225;-71
2022/01/31 12:08:06;;;;;;;43.17;26.60;;;6.40;92.20;;;;;;5043987;28;20226;-71
2022/01/31 12:10:38;;;;;;;43.03;26.53;;;6.50;91.80;;;;;;5041078;28;20212;-72
2022/01/31 12:13:28;;;;;;;40.07;24.60;;;6.70;92.00;;;;;;5041266;28;20221;-72
2022/01/31 12:24:06;;;;;;;39.60;25.23;;;7.30;90.30;;;;;;5040097;28;20305;-71
2022/01/31 12:26:33;;;;;;;40.87;25.63;;;7.40;89.50;;;;;;5045269;28;20593;-71
2022/01/31 12:29:01;;;;;;;61.30;35.30;;;7.50;87.10;;;;;;5023837;28;20210;-71
2022/01/31 12:31:41;;;;;;;77.97;42.27;;;7.60;87.10;;;;;;5042920;28;20224;-71
2022/01/31 12:34:17;;;;;;;70.83;39.07;;;7.70;86.70;;;;;;5040934;28;20214;-71
2022/01/31 12:36:44;;;;;;;71.00;40.07;;;7.80;84.80;;;;;;5037735;28;20205;-71
2022/01/31 12:39:38;;;;;;;70.33;39.77;;;7.90;84.90;;;;;;5036720;28;20250;-71
2022/01/31 12:45:30;;;;;;;64.97;38.87;;;8.10;84.60;;;;;;5041933;28;20189;-71
2022/01/31 12:48:13;;;;;;;65.60;37.53;;;8.20;82.80;;;;;;5035814;28;20307;-71
2022/01/31 12:51:05;;;;;;;68.60;38.93;;;8.30;82.40;;;;;;5040399;28;20285;-69
2022/01/31 12:56:26;;;;;;;64.43;36.43;;;8.50;82.70;;;;;;5041921;28;20210;-71
2022/01/31 12:59:13;;;;;;;63.60;35.77;;;8.70;81.90;;;;;;5043952;28;20232;-71
2022/01/31 13:01:43;;;;;;;55.77;31.77;;;8.80;81.10;;;;;;5047327;28;20528;-71
2022/01/31 13:04:15;;;;;;;57.77;32.37;;;8.80;80.40;;;;;;5038712;28;20657;-72
2022/01/31 13:06:44;;;;;;;58.63;34.37;;;8.90;78.40;;;;;;5049264;28;20579;-71
2022/01/31 13:09:24;;;;;;;59.90;33.33;;;8.90;77.50;;;;;;5047945;28;20206;-71
2022/01/31 13:11:53;;;;;;;57.97;32.80;;;9.00;77.60;;;;;;5050974;28;20206;-71
2022/01/31 13:14:27;;;;;;;69.30;36.67;;;9.10;76.70;;;;;;5049803;28;20279;-71
2022/01/31 13:17:17;;;;;;;66.50;36.00;;;9.10;76.10;;;;;;5045172;28;20201;-73
2022/01/31 13:19:53;;;;;;;69.00;39.47;;;9.10;75.80;;;;;;5045264;28;20309;-72
2022/01/31 13:22:35;;;;;;;75.50;40.90;;;9.10;77.30;;;;;;5036511;28;20221;-71
2022/01/31 13:25:08;;;;;;;66.43;40.10;;;9.00;76.60;;;;;;5049581;28;20210;-71
2022/01/31 13:27:56;;;;;;;71.47;39.77;;;9.00;76.60;;;;;;5048237;28;20206;-72
2022/01/31 13:30:26;;;;;;;68.30;41.20;;;9.10;75.90;;;;;;5043578;28;20645;-71